Ionia, IA (50645)

6:10 PM CDT on July 24, 2014 (GMT -0500)
Charles City Municipal (KCCY) Elev 1125 ft | 43.07 °N, 92.61 °W | Change Station

Current weather conditions updated 15 minutes ago

Partly Cloudy
Partly Cloudy
75 °F
Feels Like 75 °F
N
12
Wind Variable Wind from WSW

Tomorrow is forecast to be Warmer than today. A few morning showers.

Today
High -- | Low -- °F
--% Chance of Precip.
Yesterday
High -- | Low -- °F
Precip. -- in
5:52 AM 8:39 PM
Waning Crescent, 4% visible
Pressure 30.11 in
Visibility 10.0 miles
Clouds Mostly Cloudy 6000 ft
Mostly Cloudy 12000 ft
Dew Point 59 °F
Humidity 57%
Rainfall 0.00 in
Snow Depth Not available.
UV 2 out of 12
Pollen 5.80 out of 12
Air Quality Not available.
Flu Activity Not available.
METAR KCCY 242255Z AUTO 25010KT 10SM BKN060 BKN120 24/15 A3011 RMK AO2

More Conditions Fewer Conditions

Pressure 30.11 in
Visibility 10.0 miles
Clouds Mostly Cloudy 6000 ft
Mostly Cloudy 12000 ft
Dew Point 59 °F
Humidity 57%
Rainfall 0.00 in
Snow Depth Not available.
UV 2 out of 12
Pollen 5.80 out of 12
Air Quality Not available.
Flu Activity Not available.
METAR KCCY 242255Z AUTO 25010KT 10SM BKN060 BKN120 24/15 A3011 RMK AO2

More Conditions Fewer Conditions

10-Day Weather Forecast

Almanac

Astronomy

Jul. 24, 2014 Rise Set
Actual Time 5:52 AM CDT 8:39 PM CDT
Civil Twilight 5:19 AM CDT 9:12 PM CDT
Nautical Twilight 4:37 AM CDT 9:54 PM CDT
Astronomical Twilight 3:48 AM CDT 10:42 PM CDT
Moon 4:01 AM CDT 6:54 PM CDT
Length of Visible Light 15h 53m
Length of Day
14h 47m
Tomorrow will be 1m 57s shorter.
Waning Crescent, 4% of the Moon is Illuminated
Today
Waning Crescent
Jul 26
New
Aug 3
First Quarter
Aug 10
Full
Aug 17
Last Quarter

Today's Extremes

State Highs State Lows

Community

WunderPhotos

Upload Photos

1,737,162 photos uploaded!

Nearby

Snow Depth

Station Depth Elevation
No new snow has been reported.

Earthquake Activity

City Distance Mag. Time & Date
No recent earthquake activity has been reported nearby.
Minimum magnitude displayed is 2.5.

Coastal Water Temperatures

Place Temperature
No Stations Reporting

Nearby Weather Stations

Station Location Temp. Heat Index Dew Point Humidity Wind Precip. Elev Updated Type
IADOT New Hampton (US 18), Ionia, IA 77 °F 78 °F 55 °F 45% South  at  6 mph 0.00 in / hr 1072 ft 4:25 PM CDT MADIS
IEM Riceville , Riceville, IA 79 °F 82 °F 73 °F 84% SW  at  5 mph 0.00 in / hr 1253 ft 2:37 PM CDT MADIS
Radio Station N0VTZ; 5 Mi. North of, Sumner, IA 74.3 °F 72 °F -33 °F - SSW  at  0.0 mph 0.00 in / hr 1145 ft 6:10 PM CDT Rapid Fire
Wartburg College Observatory, Waverly, IA 74.9 °F 77 °F 63 °F 66% West  at  1.1 mph 0.00 in / hr 928 ft 6:10 PM CDT Rapid Fire
Osage, IA 77.0 °F 79 °F 60 °F 55% SSW  at  0.0 mph 0.00 in / hr 1173 ft 6:09 PM CDT Rapid Fire

Show More Stations Show Fewer Stations